createdAt,value
2019-05-16T00:00:35.063Z,99830.66
2019-05-16T00:03:08.014Z,99826.37
2019-05-16T00:05:50.733Z,99827.71
2019-05-16T00:08:14.058Z,99819.73
2019-05-16T00:10:48.602Z,99815.00
2019-05-16T00:13:54.901Z,99818.06
2019-05-16T00:17:24.762Z,99822.42
2019-05-16T00:19:32.275Z,99822.72
2019-05-16T00:22:08.553Z,99816.80
2019-05-16T00:24:40.179Z,99814.41
2019-05-16T00:27:12.385Z,99811.21
2019-05-16T00:29:44.428Z,99819.08
2019-05-16T00:36:24.085Z,99817.10
2019-05-16T00:39:11.172Z,99821.89
2019-05-16T00:41:47.903Z,99824.53
2019-05-16T00:44:20.110Z,99821.89
2019-05-16T00:46:52.116Z,99825.07
2019-05-16T00:49:24.195Z,99824.53
2019-05-16T00:51:58.457Z,99808.58
2019-05-16T00:54:55.056Z,99807.63
2019-05-16T01:00:45.983Z,99799.72
2019-05-16T01:06:53.536Z,99790.30
2019-05-16T01:09:28.248Z,99791.67
2019-05-16T01:12:01.373Z,99785.33
2019-05-16T01:14:35.186Z,99783.07
2019-05-16T01:17:08.962Z,99781.03
2019-05-16T01:19:40.936Z,99772.09
2019-05-16T01:22:13.319Z,99773.36
2019-05-16T01:24:49.088Z,99770.11
2019-05-16T01:27:20.589Z,99770.17
2019-05-16T01:29:54.502Z,99768.14
2019-05-16T01:32:31.854Z,99765.98
2019-05-16T01:35:00.334Z,99764.83
2019-05-16T01:37:32.303Z,99766.88
2019-05-16T01:40:04.399Z,99764.43
2019-05-16T01:42:38.308Z,99770.48
2019-05-16T01:45:11.541Z,99767.30
2019-05-16T01:47:43.497Z,99770.30
2019-05-16T01:50:18.001Z,99771.44
2019-05-16T01:52:49.745Z,99777.78
2019-05-16T01:55:21.818Z,99775.62
2019-05-16T01:57:53.899Z,99772.05
2019-05-16T02:00:35.793Z,99767.53
2019-05-16T02:03:00.314Z,99767.42
2019-05-16T02:05:32.403Z,99768.45
2019-05-16T02:08:04.393Z,99767.08
2019-05-16T02:10:38.794Z,99759.52
2019-05-16T02:13:10.897Z,99757.25
2019-05-16T02:15:43.287Z,99758.00
2019-05-16T02:18:18.478Z,99754.28
2019-05-16T02:20:50.773Z,99746.20
2019-05-16T02:23:22.795Z,99740.22
2019-05-16T02:25:54.788Z,99737.70
2019-05-16T02:28:30.896Z,99740.83
2019-05-16T02:31:01.703Z,99736.16
2019-05-16T02:33:34.829Z,99743.16
2019-05-16T02:36:06.856Z,99742.63
2019-05-16T02:38:42.002Z,99743.41
2019-05-16T02:41:12.769Z,99741.42
2019-05-16T02:43:44.835Z,99741.42
2019-05-16T02:46:16.976Z,99741.77
2019-05-16T02:48:51.810Z,99738.55
2019-05-16T02:51:22.666Z,99739.22
2019-05-16T02:53:56.599Z,99739.45
2019-05-16T02:56:31.665Z,99739.75
2019-05-16T02:59:02.483Z,99735.08
2019-05-16T03:01:35.081Z,99736.52
2019-05-16T03:04:07.251Z,99745.43
2019-05-16T03:06:41.160Z,99742.81
2019-05-16T03:09:14.039Z,99748.79
2019-05-16T03:11:46.671Z,99745.20
2019-05-16T03:14:21.312Z,99745.43
2019-05-16T03:16:55.115Z,99747.05
2019-05-16T03:19:31.134Z,99751.85
2019-05-16T03:22:05.372Z,99743.16
2019-05-16T03:24:42.035Z,99743.47
2019-05-16T03:27:12.726Z,99739.91
2019-05-16T03:29:44.687Z,99737.77
2019-05-16T03:32:16.709Z,99741.31
2019-05-16T03:34:54.198Z,99735.70
2019-05-16T03:37:24.953Z,99734.67
2019-05-16T03:39:56.613Z,99732.98
2019-05-16T03:42:31.064Z,99734.46
2019-05-16T03:45:02.662Z,99733.17
2019-05-16T03:47:34.675Z,99734.17
2019-05-16T03:50:06.890Z,99730.10
2019-05-16T03:52:43.701Z,99736.98
2019-05-16T03:55:15.003Z,99736.23
2019-05-16T03:57:46.984Z,99733.33
2019-05-16T04:00:21.232Z,99738.31
2019-05-16T04:02:53.314Z,99739.45
2019-05-16T04:05:26.087Z,99745.26
2019-05-16T04:08:18.510Z,99745.67
2019-05-16T04:10:35.552Z,99744.61
2019-05-16T04:13:11.529Z,99742.27
2019-05-16T04:15:43.434Z,99732.86
2019-05-16T04:18:15.840Z,99748.63
2019-05-16T04:20:47.805Z,99752.81
2019-05-16T04:23:20.609Z,99748.56
2019-05-16T04:25:53.950Z,99751.71
2019-05-16T04:28:26.027Z,99751.48
2019-05-16T04:31:01.419Z,99753.09
2019-05-16T04:33:31.712Z,99749.27
2019-05-16T04:36:03.673Z,99747.06
2019-05-16T04:38:41.397Z,99744.43
2019-05-16T04:41:11.507Z,99747.23
2019-05-16T04:43:45.409Z,99752.16
2019-05-16T04:46:20.927Z,99755.14
2019-05-16T04:48:51.299Z,99747.36
2019-05-16T04:51:23.456Z,99752.20
2019-05-16T04:53:55.537Z,99752.82
2019-05-16T04:56:30.666Z,99749.22
2019-05-16T04:59:01.283Z,99742.02
2019-05-16T05:01:33.411Z,99743.47
2019-05-16T05:04:10.886Z,99733.23
2019-05-16T05:06:40.560Z,99733.28
2019-05-16T05:09:12.921Z,99737.77
2019-05-16T05:11:46.678Z,99748.53
2019-05-16T05:14:21.062Z,99751.04
2019-05-16T05:16:54.095Z,99747.41
2019-05-16T05:19:26.092Z,99741.11
2019-05-16T05:22:01.143Z,99745.48
2019-05-16T05:24:34.219Z,99751.77
2019-05-16T05:27:10.297Z,99759.97
2019-05-16T05:29:41.541Z,99771.53
2019-05-16T05:32:14.524Z,99767.70
2019-05-16T05:34:46.704Z,99765.48
2019-05-16T05:37:20.487Z,99771.14
2019-05-16T05:39:52.561Z,99767.70
2019-05-16T05:42:24.868Z,99768.02
2019-05-16T05:44:57.268Z,99783.21
2019-05-16T05:47:30.796Z,99779.03
2019-05-16T05:50:03.061Z,99773.17
2019-05-16T05:52:35.017Z,99769.22
2019-05-16T05:55:07.370Z,99771.69
2019-05-16T05:57:40.368Z,99776.66
2019-05-16T06:00:12.686Z,99774.20
2019-05-16T06:02:44.688Z,99772.10
2019-05-16T06:05:20.210Z,99780.95
2019-05-16T06:07:52.493Z,99775.27
2019-05-16T06:10:24.559Z,99768.78
2019-05-16T06:12:56.643Z,99774.95
2019-05-16T06:15:30.621Z,99767.23
2019-05-16T06:18:03.802Z,99766.77
2019-05-16T06:20:39.992Z,99775.62
2019-05-16T06:23:11.386Z,99777.78
2019-05-16T06:25:43.414Z,99774.17
2019-05-16T06:28:15.517Z,99768.91
2019-05-16T06:30:51.572Z,99768.65
2019-05-16T06:33:22.623Z,99769.45
2019-05-16T06:35:54.779Z,99757.05
2019-05-16T06:38:26.849Z,99762.42
2019-05-16T06:41:00.274Z,99764.84
2019-05-16T06:43:34.396Z,99765.59
2019-05-16T06:46:06.367Z,99764.78
2019-05-16T06:48:39.855Z,99757.70
2019-05-16T06:51:12.186Z,99758.10
2019-05-16T06:53:47.280Z,99766.92
2019-05-16T06:56:20.070Z,99752.14
2019-05-16T06:58:52.424Z,99750.53
2019-05-16T07:01:36.730Z,99757.31
2019-05-16T07:04:13.504Z,99762.95
2019-05-16T07:06:58.615Z,99766.38
2019-05-16T07:09:22.336Z,99767.65
2019-05-16T07:11:54.551Z,99766.84
2019-05-16T07:14:30.741Z,99765.23
2019-05-16T07:17:00.809Z,99762.38
2019-05-16T07:19:35.386Z,99771.04
2019-05-16T07:22:06.808Z,99768.88
2019-05-16T07:24:39.959Z,99761.94
2019-05-16T07:27:12.588Z,99767.89
2019-05-16T07:29:44.714Z,99766.56
2019-05-16T07:32:16.988Z,99776.14
2019-05-16T07:34:49.858Z,99777.81
2019-05-16T07:37:22.328Z,99771.98
2019-05-16T07:39:55.135Z,99768.89
2019-05-16T07:42:27.228Z,99786.42
2019-05-16T07:45:01.197Z,99782.16
2019-05-16T07:47:33.312Z,99776.63
2019-05-16T07:50:05.527Z,99768.65
2019-05-16T07:52:39.980Z,99765.66
2019-05-16T07:55:13.158Z,99760.89
2019-05-16T07:57:45.242Z,99761.34
2019-05-16T08:00:21.251Z,99757.20
2019-05-16T08:02:51.608Z,99748.69
2019-05-16T08:05:25.935Z,99759.95
2019-05-16T08:08:00.050Z,99775.81
2019-05-16T08:10:40.675Z,99786.36
2019-05-16T08:13:05.731Z,99782.52
2019-05-16T08:15:40.540Z,99792.91
2019-05-16T08:18:11.618Z,99781.01
2019-05-16T08:20:43.698Z,99777.86
2019-05-16T08:23:16.743Z,99780.42
2019-05-16T08:25:50.978Z,99791.91
2019-05-16T08:28:24.215Z,99801.13
2019-05-16T08:30:56.290Z,99792.22
2019-05-16T08:33:31.195Z,99804.27
2019-05-16T08:36:07.886Z,99806.43
2019-05-16T08:38:43.263Z,99801.25
2019-05-16T08:41:17.443Z,99809.87
2019-05-16T08:43:53.406Z,99807.99
2019-05-16T08:46:25.798Z,99809.48
2019-05-16T08:49:00.826Z,99809.39
2019-05-16T08:51:33.181Z,99809.81
2019-05-16T08:54:05.883Z,99806.89
2019-05-16T08:56:43.752Z,99802.38
2019-05-16T08:59:13.612Z,99807.61
2019-05-16T09:01:56.696Z,99803.59
2019-05-16T09:04:25.888Z,99800.95
2019-05-16T09:08:00.453Z,99803.87
2019-05-16T09:10:59.970Z,99792.31
2019-05-16T09:13:14.390Z,99795.71
2019-05-16T09:15:48.125Z,99793.69
2019-05-16T09:18:20.520Z,99801.70
2019-05-16T09:20:53.459Z,99798.81
2019-05-16T09:23:26.795Z,99809.73
2019-05-16T09:26:01.752Z,99802.36
2019-05-16T09:28:33.690Z,99809.77
2019-05-16T09:31:07.140Z,99809.13
2019-05-16T09:33:39.239Z,99796.83
2019-05-16T09:36:11.422Z,99803.81
2019-05-16T09:38:43.557Z,99809.75
2019-05-16T09:41:17.051Z,99813.86
2019-05-16T09:43:49.587Z,99819.23
2019-05-16T09:46:21.512Z,99811.33
2019-05-16T09:49:13.019Z,99814.42
2019-05-16T09:51:27.400Z,99810.37
2019-05-16T09:53:59.326Z,99806.58
2019-05-16T09:56:33.598Z,99806.91
2019-05-16T09:59:06.895Z,99799.91
2019-05-16T10:01:39.018Z,99794.45
2019-05-16T10:04:11.163Z,99797.36
2019-05-16T10:06:43.173Z,99798.61
2019-05-16T10:09:17.422Z,99797.62
2019-05-16T10:11:54.151Z,99794.96
2019-05-16T10:14:22.678Z,99805.20
2019-05-16T10:16:54.582Z,99808.34
2019-05-16T10:19:27.563Z,99806.53
2019-05-16T10:22:00.298Z,99800.48
2019-05-16T10:24:33.473Z,99806.47
2019-05-16T10:27:06.860Z,99791.68
2019-05-16T10:29:38.934Z,99790.61
2019-05-16T10:32:11.074Z,99788.95
2019-05-16T10:34:43.695Z,99802.41
2019-05-16T10:37:17.577Z,99805.84
2019-05-16T10:39:49.392Z,99805.46
2019-05-16T10:42:28.537Z,99805.34
2019-05-16T10:44:57.558Z,99803.99
2019-05-16T10:47:31.325Z,99801.06
2019-05-16T10:50:02.993Z,99807.34
2019-05-16T10:52:36.718Z,99806.02
2019-05-16T10:55:10.353Z,99808.98
2019-05-16T10:57:43.995Z,99810.28
2019-05-16T11:00:37.129Z,99814.11
2019-05-16T11:02:52.262Z,99815.11
2019-05-16T11:05:33.040Z,99815.13
2019-05-16T11:08:02.385Z,99816.66
2019-05-16T11:10:37.142Z,99820.09
2019-05-16T11:13:08.396Z,99823.52
2019-05-16T11:15:40.362Z,99823.31
2019-05-16T11:18:13.123Z,99816.59
2019-05-16T11:20:49.122Z,99816.55
2019-05-16T11:23:23.035Z,99808.67
2019-05-16T11:25:55.395Z,99810.89
2019-05-16T11:28:28.227Z,99798.81
2019-05-16T11:31:03.557Z,99799.48
2019-05-16T11:33:34.057Z,99799.72
2019-05-16T11:36:08.245Z,99794.52
2019-05-16T11:38:39.980Z,99789.28
2019-05-16T11:41:12.923Z,99785.53
2019-05-16T11:43:47.401Z,99781.58
2019-05-16T11:46:19.602Z,99776.91
2019-05-16T11:48:51.591Z,99765.80
2019-05-16T11:51:23.874Z,99766.05
2019-05-16T11:54:00.010Z,99750.13
2019-05-16T11:56:32.122Z,99745.72
2019-05-16T11:59:04.144Z,99744.73
2019-05-16T12:01:36.965Z,99750.52
2019-05-16T12:04:09.323Z,99750.25
2019-05-16T12:06:41.840Z,99744.77
2019-05-16T12:09:14.013Z,99741.48
2019-05-16T12:11:46.010Z,99730.52
2019-05-16T12:14:17.942Z,99736.16
2019-05-16T12:16:49.974Z,99724.00
2019-05-16T12:19:22.025Z,99724.64
2019-05-16T12:21:54.021Z,99720.09
2019-05-16T12:24:33.660Z,99716.83
2019-05-16T12:27:00.725Z,99702.28
2019-05-16T12:29:32.848Z,99709.32
2019-05-16T12:32:07.410Z,99697.28
2019-05-16T12:34:38.545Z,99710.04
2019-05-16T12:37:12.734Z,99697.52
2019-05-16T12:39:47.140Z,99705.31
2019-05-16T12:42:19.392Z,99702.08
2019-05-16T12:44:51.330Z,99704.28
2019-05-16T12:47:23.697Z,99696.08
2019-05-16T12:49:58.217Z,99694.00
2019-05-16T12:52:31.181Z,99687.27
2019-05-16T12:55:04.125Z,99694.80
2019-05-16T12:57:38.300Z,99683.05
2019-05-16T13:00:15.344Z,99698.53
2019-05-16T13:02:47.347Z,99689.64
2019-05-16T13:05:20.462Z,99693.00
2019-05-16T13:07:52.429Z,99700.73
2019-05-16T13:10:27.034Z,99696.61
2019-05-16T13:12:59.164Z,99710.31
2019-05-16T13:15:31.081Z,99700.10
2019-05-16T13:18:03.055Z,99699.35
2019-05-16T13:20:39.232Z,99681.18
2019-05-16T13:23:14.361Z,99691.36
2019-05-16T13:25:44.277Z,99686.09
2019-05-16T13:28:16.333Z,99690.53
2019-05-16T13:30:48.329Z,99692.67
2019-05-16T13:33:20.352Z,99697.20
2019-05-16T13:35:52.256Z,99694.93
2019-05-16T13:38:27.866Z,99704.05
2019-05-16T13:41:00.113Z,99703.04
2019-05-16T13:43:32.066Z,99702.76
2019-05-16T13:46:06.857Z,99696.77
2019-05-16T13:48:38.002Z,99694.95
2019-05-16T13:51:15.208Z,99685.20
2019-05-16T13:53:44.312Z,99696.80
2019-05-16T13:56:17.555Z,99690.28
2019-05-16T13:58:49.857Z,99689.99
2019-05-16T14:01:23.254Z,99694.95
2019-05-16T14:03:57.290Z,99688.82
2019-05-16T14:06:30.884Z,99684.39
2019-05-16T14:09:03.830Z,99685.00
2019-05-16T14:11:36.504Z,99680.67
2019-05-16T14:14:08.530Z,99697.42
2019-05-16T14:16:41.500Z,99698.84
2019-05-16T14:19:17.285Z,99688.92
2019-05-16T14:21:48.121Z,99694.65
2019-05-16T14:24:20.052Z,99686.52
2019-05-16T14:26:52.018Z,99686.95
2019-05-16T14:29:23.936Z,99689.02
2019-05-16T14:31:58.725Z,99692.59
2019-05-16T14:34:30.643Z,99688.17
2019-05-16T14:37:02.621Z,99691.25
2019-05-16T14:39:38.884Z,99687.42
2019-05-16T14:42:11.279Z,99688.19
2019-05-16T14:44:59.586Z,99686.29
2019-05-16T14:47:17.722Z,99682.85
2019-05-16T14:49:50.318Z,99679.52
2019-05-16T14:52:22.227Z,99690.27
2019-05-16T14:54:54.240Z,99682.78
2019-05-16T14:57:27.403Z,99700.03
2019-05-16T14:59:59.398Z,99688.90
2019-05-16T15:02:31.415Z,99690.55
2019-05-16T15:05:03.351Z,99690.82
2019-05-16T15:07:37.623Z,99705.75
2019-05-16T15:10:11.053Z,99696.98
2019-05-16T15:12:43.075Z,99706.84
2019-05-16T15:15:23.403Z,99712.84
2019-05-16T15:17:56.668Z,99709.77
2019-05-16T15:20:28.035Z,99718.02
2019-05-16T15:23:00.041Z,99721.36
2019-05-16T15:25:31.999Z,99729.91
2019-05-16T15:28:03.956Z,99723.84
2019-05-16T15:30:39.009Z,99727.20
2019-05-16T15:33:10.962Z,99724.73
2019-05-16T15:35:42.925Z,99736.60
2019-05-16T15:38:16.671Z,99739.53
2019-05-16T15:40:50.767Z,99740.16
2019-05-16T15:43:27.543Z,99741.77
2019-05-16T15:46:01.144Z,99744.70
2019-05-16T15:48:36.852Z,99745.33
2019-05-16T15:51:09.139Z,99747.32
2019-05-16T15:53:41.207Z,99751.84
2019-05-16T15:56:17.628Z,99744.28
2019-05-16T15:58:49.227Z,99747.53
2019-05-16T16:01:21.314Z,99752.09
2019-05-16T16:03:53.246Z,99752.72
2019-05-16T16:06:27.444Z,99759.76
2019-05-16T16:09:00.013Z,99774.14
2019-05-16T16:11:32.001Z,99786.43
2019-05-16T16:14:06.993Z,99791.55
2019-05-16T16:16:38.509Z,99792.67
2019-05-16T16:19:10.470Z,99801.73
2019-05-16T16:21:47.074Z,99798.25
2019-05-16T16:24:19.133Z,99800.80
2019-05-16T16:26:51.455Z,99787.74
2019-05-16T16:29:23.853Z,99791.03
2019-05-16T16:31:56.906Z,99807.53
2019-05-16T16:34:28.978Z,99810.95
2019-05-16T16:37:00.939Z,99814.80
2019-05-16T16:39:33.591Z,99813.91
2019-05-16T16:42:07.616Z,99822.86
2019-05-16T16:44:39.384Z,99821.66
2019-05-16T16:47:11.684Z,99827.89
2019-05-16T16:49:43.668Z,99814.75
2019-05-16T16:52:16.779Z,99814.48
2019-05-16T16:54:49.595Z,99818.16
2019-05-16T16:57:21.522Z,99803.59
2019-05-16T16:59:53.825Z,99808.13
2019-05-16T17:02:27.790Z,99817.91
2019-05-16T17:05:01.599Z,99817.37
2019-05-16T17:07:37.297Z,99809.56
2019-05-16T17:10:10.228Z,99814.64
2019-05-16T17:12:42.699Z,99806.45
2019-05-16T17:15:17.062Z,99802.77
2019-05-16T17:17:48.723Z,99800.65
2019-05-16T17:20:20.968Z,99804.19
2019-05-16T17:22:52.890Z,99802.52
2019-05-16T17:25:26.876Z,99804.50
2019-05-16T17:28:00.309Z,99801.13
2019-05-16T17:30:36.768Z,99804.99
2019-05-16T17:33:09.042Z,99795.92
2019-05-16T17:35:41.525Z,99796.59
2019-05-16T17:38:13.495Z,99804.03
2019-05-16T17:40:46.449Z,99796.86
2019-05-16T17:43:19.649Z,99799.05
2019-05-16T17:45:51.629Z,99799.84
2019-05-16T17:48:27.221Z,99788.27
2019-05-16T17:50:57.200Z,99791.98
2019-05-16T17:53:29.124Z,99795.30
2019-05-16T17:56:02.123Z,99800.05
2019-05-16T17:58:34.091Z,99792.48
2019-05-16T18:01:08.001Z,99791.98
2019-05-16T18:03:39.953Z,99790.31
2019-05-16T18:06:16.877Z,99801.02
2019-05-16T18:08:48.548Z,99806.09
2019-05-16T18:11:20.559Z,99795.84
2019-05-16T18:13:57.142Z,99804.73
2019-05-16T18:16:30.323Z,99803.58
2019-05-16T18:19:02.286Z,99809.95
2019-05-16T18:21:34.247Z,99811.33
2019-05-16T18:24:06.428Z,99810.73
2019-05-16T18:26:38.491Z,99812.47
2019-05-16T18:29:10.526Z,99820.08
2019-05-16T18:31:42.497Z,99821.17
2019-05-16T18:34:16.865Z,99827.84
2019-05-16T18:36:48.595Z,99823.88
2019-05-16T18:39:20.521Z,99830.83
2019-05-16T18:41:52.630Z,99825.31
2019-05-16T18:44:24.575Z,99829.32
2019-05-16T18:47:06.664Z,99829.45
2019-05-16T18:49:30.218Z,99838.55
2019-05-16T18:52:02.217Z,99842.61
2019-05-16T18:54:37.595Z,99837.90
2019-05-16T18:57:09.512Z,99834.30
2019-05-16T18:59:41.855Z,99843.73
2019-05-16T19:02:13.871Z,99845.03
2019-05-16T19:04:46.575Z,99851.08
2019-05-16T19:07:19.710Z,99853.45
2019-05-16T19:09:51.730Z,99854.58
2019-05-16T19:12:26.189Z,99861.78
2019-05-16T19:15:00.215Z,99868.89
2019-05-16T19:31:00.237Z,99875.45
2019-05-16T19:33:35.937Z,99887.20
2019-05-16T19:36:12.588Z,99883.05
2019-05-16T19:38:49.688Z,99883.27
2019-05-16T19:41:29.124Z,99885.23
2019-05-16T19:44:06.726Z,99881.91
2019-05-16T19:46:47.273Z,99896.03
2019-05-16T19:49:21.562Z,99893.76
2019-05-16T19:51:53.723Z,99894.67
2019-05-16T19:54:27.032Z,99894.95
2019-05-16T19:57:00.442Z,99894.98
2019-05-16T19:59:36.581Z,99893.14
2019-05-16T20:02:08.491Z,99899.51
2019-05-16T20:04:40.457Z,99898.02
2019-05-16T20:07:12.410Z,99903.70
2019-05-16T20:09:46.807Z,99913.09
2019-05-16T20:12:18.087Z,99916.26
2019-05-16T20:14:50.030Z,99911.75
2019-05-16T20:17:22.032Z,99912.41
2019-05-16T20:19:56.257Z,99913.68
2019-05-16T20:22:27.636Z,99919.89
2019-05-16T20:24:59.702Z,99931.50
2019-05-16T20:27:31.674Z,99925.10
2019-05-16T20:30:06.515Z,99928.45
2019-05-16T20:32:41.606Z,99937.17
2019-05-16T20:35:17.330Z,99938.86
2019-05-16T20:37:48.582Z,99945.96
2019-05-16T20:40:20.745Z,99945.59
2019-05-16T20:42:52.735Z,99948.48
2019-05-16T20:45:27.078Z,99951.11
2019-05-16T20:48:10.880Z,99958.20
2019-05-16T20:50:33.758Z,99956.05
2019-05-16T20:53:07.231Z,99951.90
2019-05-16T20:55:39.733Z,99960.98
2019-05-16T20:58:11.983Z,99964.34
2019-05-16T21:00:44.095Z,99965.84
2019-05-16T21:03:16.449Z,99970.16
2019-05-16T21:05:48.656Z,99973.41
2019-05-16T21:08:20.936Z,99976.77
2019-05-16T21:10:53.208Z,99985.15
2019-05-16T21:13:25.409Z,99978.33
2019-05-16T21:15:57.793Z,99976.17
2019-05-16T21:18:30.216Z,99978.08
2019-05-16T21:21:03.612Z,99980.73
2019-05-16T21:23:37.488Z,99985.30
2019-05-16T21:26:09.639Z,99991.63
2019-05-16T21:28:41.922Z,99989.81
2019-05-16T21:31:16.400Z,99995.58
2019-05-16T21:33:49.340Z,99996.27
2019-05-16T21:36:21.841Z,99989.56
2019-05-16T21:38:54.443Z,99999.37
2019-05-16T21:41:27.111Z,99999.03
2019-05-16T21:44:00.857Z,100007.27
2019-05-16T21:46:36.394Z,100008.72
2019-05-16T21:49:08.113Z,100012.19
2019-05-16T21:51:40.465Z,100010.98
2019-05-16T21:54:12.850Z,100004.80
2019-05-16T21:56:46.802Z,100008.05
2019-05-16T21:59:19.644Z,100014.70
2019-05-16T22:01:52.143Z,100011.61
2019-05-16T22:04:24.539Z,100020.45
2019-05-16T22:07:00.293Z,100015.57
2019-05-16T22:09:33.699Z,100017.23
2019-05-16T22:12:07.587Z,100014.98
2019-05-16T22:14:46.652Z,100017.01
2019-05-16T22:17:19.155Z,100016.78
2019-05-16T22:19:51.466Z,100016.05
2019-05-16T22:22:27.551Z,100013.92
2019-05-16T22:24:59.124Z,100015.97
2019-05-16T22:27:33.381Z,100009.39
2019-05-16T22:30:08.497Z,100004.77
2019-05-16T22:32:41.059Z,100005.00
2019-05-16T22:35:13.775Z,100005.97
2019-05-16T22:37:55.130Z,100014.91
2019-05-16T22:40:22.430Z,100010.73
2019-05-16T22:42:54.616Z,100007.30
2019-05-16T22:45:27.246Z,99998.94
2019-05-16T22:47:59.711Z,100003.48
2019-05-16T22:50:33.598Z,100008.69
2019-05-16T22:53:06.400Z,99997.29
2019-05-16T22:55:38.901Z,99996.09
2019-05-16T22:58:11.144Z,99996.67
2019-05-16T23:00:44.580Z,99990.12
2019-05-16T23:03:19.800Z,99984.52
2019-05-16T23:05:51.921Z,99976.81
2019-05-16T23:08:24.059Z,99975.38
2019-05-16T23:10:56.679Z,99974.53
2019-05-16T23:13:29.315Z,99979.07
2019-05-16T23:16:03.098Z,99972.87
2019-05-16T23:18:37.280Z,99967.99
2019-05-16T23:21:10.811Z,99965.83
2019-05-16T23:23:42.791Z,99973.45
2019-05-16T23:26:16.769Z,99966.31
2019-05-16T23:28:50.567Z,99970.31
2019-05-16T23:31:24.384Z,99967.09
2019-05-16T23:33:59.300Z,99969.10
2019-05-16T23:36:31.303Z,99961.85
2019-05-16T23:39:06.243Z,99968.13
2019-05-16T23:41:42.095Z,99972.56
2019-05-16T23:44:16.518Z,99980.04
2019-05-16T23:46:47.852Z,99976.78
2019-05-16T23:49:20.303Z,99979.48
2019-05-16T23:51:52.831Z,99982.09
2019-05-16T23:54:27.819Z,99978.41
2019-05-16T23:56:59.520Z,99975.92
2019-05-16T23:59:31.556Z,99977.14
